createdAt,value
2019-01-13T00:00:00.465Z,983.03
2019-01-13T00:01:00.625Z,983.01
2019-01-13T00:02:00.771Z,983.03
2019-01-13T00:03:00.914Z,983.02
2019-01-13T00:04:01.057Z,982.98
2019-01-13T00:05:01.205Z,982.92
2019-01-13T00:06:01.350Z,982.96
2019-01-13T00:07:01.492Z,982.94
2019-01-13T00:08:01.642Z,982.91
2019-01-13T00:09:01.784Z,982.91
2019-01-13T00:10:01.930Z,982.95
2019-01-13T00:11:02.075Z,982.93
2019-01-13T00:12:02.221Z,982.91
2019-01-13T00:13:02.364Z,982.94
2019-01-13T00:14:02.510Z,982.99
2019-01-13T00:15:02.655Z,982.97
2019-01-13T00:16:02.801Z,983.01
2019-01-13T00:17:02.945Z,982.97
2019-01-13T00:18:03.089Z,983.03
2019-01-13T00:19:03.234Z,982.96
2019-01-13T00:20:03.379Z,982.95
2019-01-13T00:21:03.523Z,982.99
2019-01-13T00:22:03.666Z,982.99
2019-01-13T00:23:03.814Z,982.98
2019-01-13T00:24:03.959Z,983.00
2019-01-13T00:25:04.108Z,982.98
2019-01-13T00:26:04.250Z,982.94
2019-01-13T00:27:04.397Z,982.94
2019-01-13T00:28:04.538Z,982.96
2019-01-13T00:29:04.687Z,982.97
2019-01-13T00:30:04.838Z,982.98
2019-01-13T00:31:04.978Z,983.01
2019-01-13T00:32:05.123Z,983.00
2019-01-13T00:33:05.271Z,983.02
2019-01-13T00:34:05.414Z,982.99
2019-01-13T00:35:05.563Z,982.96
2019-01-13T00:36:05.705Z,982.99
2019-01-13T00:37:05.851Z,982.99
2019-01-13T00:38:05.995Z,983.00
2019-01-13T00:39:06.141Z,983.01
2019-01-13T00:40:06.289Z,983.01
2019-01-13T00:41:06.433Z,983.02
2019-01-13T00:42:06.579Z,983.03
2019-01-13T00:43:06.725Z,983.08
2019-01-13T00:44:06.876Z,983.09
2019-01-13T00:45:07.017Z,983.11
2019-01-13T00:46:07.162Z,983.16
2019-01-13T00:47:07.310Z,983.14
2019-01-13T00:48:07.451Z,983.17
2019-01-13T00:49:07.600Z,983.14
2019-01-13T00:50:07.752Z,983.14
2019-01-13T00:51:07.889Z,983.12
2019-01-13T00:52:08.036Z,983.10
2019-01-13T00:53:08.182Z,983.11
2019-01-13T00:54:08.328Z,983.10
2019-01-13T00:55:08.471Z,983.09
2019-01-13T00:56:08.616Z,983.11
2019-01-13T00:57:08.765Z,983.12
2019-01-13T00:58:08.910Z,983.10
2019-01-13T00:59:09.055Z,983.14
2019-01-13T01:00:09.200Z,983.18
2019-01-13T01:01:09.346Z,983.19
2019-01-13T01:02:09.496Z,983.17
2019-01-13T01:03:09.639Z,983.17
2019-01-13T01:04:09.785Z,983.20
2019-01-13T01:05:09.931Z,983.16
2019-01-13T01:06:10.075Z,983.16
2019-01-13T01:07:10.222Z,983.18
2019-01-13T01:08:10.368Z,983.18
2019-01-13T01:09:10.511Z,983.20
2019-01-13T01:10:10.655Z,983.21
2019-01-13T01:11:10.804Z,983.30
2019-01-13T01:12:10.944Z,983.27
2019-01-13T01:13:11.091Z,983.32
2019-01-13T01:14:11.235Z,983.38
2019-01-13T01:15:11.381Z,983.30
2019-01-13T01:16:11.527Z,983.29
2019-01-13T01:17:11.670Z,983.33
2019-01-13T01:18:11.818Z,983.30
2019-01-13T01:19:11.962Z,983.26
2019-01-13T01:20:12.107Z,983.32
2019-01-13T01:21:12.252Z,983.31
2019-01-13T01:22:12.398Z,983.32
2019-01-13T01:23:12.545Z,983.28
2019-01-13T01:24:12.689Z,983.29
2019-01-13T01:25:12.832Z,983.27
2019-01-13T01:26:12.980Z,983.28
2019-01-13T01:27:13.120Z,983.30
2019-01-13T01:28:13.270Z,983.29
2019-01-13T01:29:13.409Z,983.28
2019-01-13T01:30:13.556Z,983.33
2019-01-13T01:31:13.703Z,983.27
2019-01-13T01:32:13.845Z,983.26
2019-01-13T01:33:13.990Z,983.22
2019-01-13T01:34:14.133Z,983.22
2019-01-13T01:35:14.280Z,983.24
2019-01-13T01:36:14.423Z,983.24
2019-01-13T01:37:14.569Z,983.26
2019-01-13T01:38:14.713Z,983.25
2019-01-13T01:39:14.858Z,983.26
2019-01-13T01:40:15.002Z,983.22
2019-01-13T01:41:15.150Z,983.24
2019-01-13T01:42:15.293Z,983.22
2019-01-13T01:43:15.441Z,983.20
2019-01-13T01:44:15.581Z,983.20
2019-01-13T01:45:15.725Z,983.20
2019-01-13T01:46:15.872Z,983.25
2019-01-13T01:47:16.025Z,983.22
2019-01-13T01:48:16.163Z,983.20
2019-01-13T01:49:16.310Z,983.21
2019-01-13T01:50:16.459Z,983.22
2019-01-13T01:51:16.601Z,983.20
2019-01-13T01:52:16.746Z,983.23
2019-01-13T01:53:16.892Z,983.19
2019-01-13T01:54:17.038Z,983.20
2019-01-13T01:55:17.182Z,983.19
2019-01-13T01:56:17.328Z,983.21
2019-01-13T01:57:17.473Z,983.18
2019-01-13T01:58:17.618Z,983.19
2019-01-13T01:59:17.760Z,983.23
2019-01-13T02:00:17.906Z,983.22
2019-01-13T02:01:18.054Z,983.20
2019-01-13T02:02:18.194Z,983.23
2019-01-13T02:03:18.339Z,983.21
2019-01-13T02:04:18.482Z,983.22
2019-01-13T02:05:18.626Z,983.16
2019-01-13T02:06:18.805Z,983.19
2019-01-13T02:07:18.954Z,983.16
2019-01-13T02:08:19.062Z,983.16
2019-01-13T02:09:19.204Z,983.12
2019-01-13T02:10:19.351Z,983.09
2019-01-13T02:11:19.494Z,983.06
2019-01-13T02:12:19.640Z,983.09
2019-01-13T02:13:19.786Z,983.15
2019-01-13T02:14:19.934Z,983.12
2019-01-13T02:15:20.080Z,983.08
2019-01-13T02:16:20.223Z,983.12
2019-01-13T02:17:20.368Z,983.11
2019-01-13T02:18:20.513Z,983.07
2019-01-13T02:19:20.660Z,983.09
2019-01-13T02:20:20.805Z,983.10
2019-01-13T02:21:20.949Z,983.10
2019-01-13T02:22:21.094Z,983.08
2019-01-13T02:23:21.239Z,983.14
2019-01-13T02:24:21.383Z,983.10
2019-01-13T02:25:21.531Z,983.13
2019-01-13T02:26:21.674Z,983.07
2019-01-13T02:27:21.819Z,983.12
2019-01-13T02:28:21.966Z,983.12
2019-01-13T02:29:22.107Z,983.13
2019-01-13T02:30:22.252Z,983.13
2019-01-13T02:31:22.397Z,983.09
2019-01-13T02:32:22.542Z,983.11
2019-01-13T02:33:22.687Z,983.10
2019-01-13T02:34:22.831Z,983.08
2019-01-13T02:35:23.038Z,983.08
2019-01-13T02:36:23.123Z,983.02
2019-01-13T02:37:23.268Z,983.00
2019-01-13T02:38:23.411Z,983.00
2019-01-13T02:39:23.558Z,982.96
2019-01-13T02:40:23.726Z,982.97
2019-01-13T02:41:23.847Z,982.99
2019-01-13T02:42:23.991Z,982.97
2019-01-13T02:43:24.133Z,982.99
2019-01-13T02:44:24.278Z,982.97
2019-01-13T02:45:24.426Z,982.96
2019-01-13T02:46:24.576Z,982.98
2019-01-13T02:47:24.707Z,983.00
2019-01-13T02:48:24.889Z,982.95
2019-01-13T02:49:25.032Z,982.99
2019-01-13T02:50:25.175Z,983.01
2019-01-13T02:51:25.320Z,982.97
2019-01-13T02:52:25.462Z,982.97
2019-01-13T02:53:25.608Z,982.97
2019-01-13T02:54:25.750Z,982.95
2019-01-13T02:55:25.901Z,982.95
2019-01-13T02:56:26.040Z,982.89
2019-01-13T02:57:26.185Z,982.85
2019-01-13T02:58:26.329Z,982.81
2019-01-13T02:59:26.473Z,982.81
2019-01-13T03:00:26.618Z,982.85
2019-01-13T03:01:26.763Z,982.82
2019-01-13T03:02:26.905Z,982.78
2019-01-13T03:03:27.053Z,982.75
2019-01-13T03:04:27.197Z,982.73
2019-01-13T03:05:27.342Z,982.72
2019-01-13T03:06:27.521Z,982.68
2019-01-13T03:07:27.640Z,982.76
2019-01-13T03:08:27.777Z,982.77
2019-01-13T03:09:27.930Z,982.77
2019-01-13T03:10:28.069Z,982.77
2019-01-13T03:11:28.217Z,982.73
2019-01-13T03:12:28.357Z,982.68
2019-01-13T03:13:28.504Z,982.68
2019-01-13T03:14:28.647Z,982.69
2019-01-13T03:15:28.794Z,982.71
2019-01-13T03:16:28.939Z,982.68
2019-01-13T03:17:29.084Z,982.67
2019-01-13T03:18:29.233Z,982.65
2019-01-13T03:19:29.380Z,982.64
2019-01-13T03:20:29.524Z,982.64
2019-01-13T03:21:29.670Z,982.64
2019-01-13T03:22:29.815Z,982.64
2019-01-13T03:23:29.957Z,982.61
2019-01-13T03:24:30.102Z,982.59
2019-01-13T03:25:30.248Z,982.57
2019-01-13T03:26:30.391Z,982.60
2019-01-13T03:27:30.537Z,982.57
2019-01-13T03:28:30.680Z,982.58
2019-01-13T03:29:30.824Z,982.54
2019-01-13T03:30:30.968Z,982.53
2019-01-13T03:31:31.114Z,982.53
2019-01-13T03:32:31.267Z,982.53
2019-01-13T03:33:31.404Z,982.50
2019-01-13T03:34:31.548Z,982.57
2019-01-13T03:35:31.694Z,982.54
2019-01-13T03:36:31.839Z,982.55
2019-01-13T03:37:31.990Z,982.57
2019-01-13T03:38:32.130Z,982.57
2019-01-13T03:39:32.274Z,982.58
2019-01-13T03:40:32.416Z,982.50
2019-01-13T03:41:32.561Z,982.50
2019-01-13T03:42:32.709Z,982.47
2019-01-13T03:43:32.863Z,982.49
2019-01-13T03:44:32.998Z,982.46
2019-01-13T03:45:33.143Z,982.46
2019-01-13T03:46:33.289Z,982.45
2019-01-13T03:47:33.435Z,982.46
2019-01-13T03:48:33.580Z,982.41
2019-01-13T03:49:33.726Z,982.42
2019-01-13T03:50:33.881Z,982.41
2019-01-13T03:51:34.025Z,982.44
2019-01-13T03:52:34.160Z,982.36
2019-01-13T03:53:34.306Z,982.39
2019-01-13T03:54:34.450Z,982.40
2019-01-13T03:55:34.589Z,982.43
2019-01-13T03:56:34.739Z,982.44
2019-01-13T03:57:34.877Z,982.43
2019-01-13T03:58:35.021Z,982.42
2019-01-13T03:59:35.165Z,982.43
2019-01-13T04:00:35.310Z,982.47
2019-01-13T04:01:35.458Z,982.40
2019-01-13T04:02:35.604Z,982.39
2019-01-13T04:03:35.749Z,982.38
2019-01-13T04:04:35.896Z,982.43
2019-01-13T04:05:36.044Z,982.44
2019-01-13T04:06:36.184Z,982.44
2019-01-13T04:07:36.328Z,982.41
2019-01-13T04:08:36.472Z,982.36
2019-01-13T04:09:36.618Z,982.33
2019-01-13T04:10:36.760Z,982.35
2019-01-13T04:11:36.906Z,982.33
2019-01-13T04:12:37.050Z,982.29
2019-01-13T04:13:37.196Z,982.30
2019-01-13T04:14:37.341Z,982.33
2019-01-13T04:15:37.488Z,982.35
2019-01-13T04:16:37.636Z,982.33
2019-01-13T04:17:37.780Z,982.30
2019-01-13T04:18:37.927Z,982.29
2019-01-13T04:19:38.068Z,982.29
2019-01-13T04:20:38.215Z,982.32
2019-01-13T04:21:38.357Z,982.34
2019-01-13T04:22:38.514Z,982.26
2019-01-13T04:23:38.646Z,982.36
2019-01-13T04:24:38.794Z,982.27
2019-01-13T04:25:38.943Z,982.28
2019-01-13T04:26:39.086Z,982.28
2019-01-13T04:27:39.229Z,982.27
2019-01-13T04:28:39.373Z,982.25
2019-01-13T04:29:39.519Z,982.28
2019-01-13T04:30:39.669Z,982.22
2019-01-13T04:31:39.811Z,982.25
2019-01-13T04:32:39.957Z,982.27
2019-01-13T04:33:40.100Z,982.27
2019-01-13T04:34:40.245Z,982.21
2019-01-13T04:35:40.389Z,982.23
2019-01-13T04:36:40.532Z,982.18
2019-01-13T04:37:40.676Z,982.14
2019-01-13T04:38:40.823Z,982.09
2019-01-13T04:39:40.968Z,982.04
2019-01-13T04:40:41.108Z,982.02
2019-01-13T04:41:41.259Z,981.96
2019-01-13T04:42:41.407Z,981.99
2019-01-13T04:43:41.544Z,982.01
2019-01-13T04:44:41.689Z,981.97
2019-01-13T04:45:41.831Z,982.00
2019-01-13T04:46:41.976Z,982.00
2019-01-13T04:47:42.122Z,981.98
2019-01-13T04:48:42.265Z,981.95
2019-01-13T04:49:42.412Z,981.89
2019-01-13T04:50:42.585Z,981.87
2019-01-13T04:51:42.725Z,981.85
2019-01-13T04:52:42.871Z,981.78
2019-01-13T04:53:43.017Z,981.75
2019-01-13T04:54:43.164Z,981.76
2019-01-13T04:55:43.303Z,981.81
2019-01-13T04:56:43.447Z,981.76
2019-01-13T04:57:43.593Z,981.81
2019-01-13T04:58:43.738Z,981.79
2019-01-13T04:59:43.885Z,981.85
2019-01-13T05:00:44.030Z,981.79
2019-01-13T05:01:44.174Z,981.78
2019-01-13T05:02:44.318Z,981.71
2019-01-13T05:03:44.464Z,981.75
2019-01-13T05:04:44.610Z,981.71
2019-01-13T05:05:44.756Z,981.70
2019-01-13T05:06:44.900Z,981.59
2019-01-13T05:07:45.044Z,981.62
2019-01-13T05:08:45.189Z,981.57
2019-01-13T05:09:45.334Z,981.55
2019-01-13T05:10:45.474Z,981.52
2019-01-13T05:11:45.620Z,981.53
2019-01-13T05:12:45.764Z,981.56
2019-01-13T05:13:45.911Z,981.54
2019-01-13T05:14:46.058Z,981.50
2019-01-13T05:15:46.201Z,981.53
2019-01-13T05:16:46.344Z,981.58
2019-01-13T05:17:46.490Z,981.59
2019-01-13T05:18:46.663Z,981.55
2019-01-13T05:19:46.780Z,981.53
2019-01-13T05:20:46.927Z,981.47
2019-01-13T05:21:47.068Z,981.49
2019-01-13T05:22:47.213Z,981.46
2019-01-13T05:23:47.361Z,981.51
2019-01-13T05:24:47.506Z,981.48
2019-01-13T05:25:47.650Z,981.42
2019-01-13T05:26:47.795Z,981.34
2019-01-13T05:27:47.942Z,981.40
2019-01-13T05:28:48.085Z,981.35
2019-01-13T05:29:48.230Z,981.30
2019-01-13T05:30:48.375Z,981.30
2019-01-13T05:31:48.520Z,981.27
2019-01-13T05:32:48.664Z,981.30
2019-01-13T05:33:48.809Z,981.30
2019-01-13T05:34:48.955Z,981.28
2019-01-13T05:35:49.100Z,981.26
2019-01-13T05:36:49.248Z,981.20
2019-01-13T05:37:49.393Z,981.12
2019-01-13T05:38:49.535Z,981.13
2019-01-13T05:39:49.679Z,981.10
2019-01-13T05:40:49.823Z,981.10
2019-01-13T05:41:49.968Z,981.11
2019-01-13T05:42:50.115Z,981.13
2019-01-13T05:43:50.258Z,981.07
2019-01-13T05:44:50.425Z,981.05
2019-01-13T05:45:50.541Z,981.08
2019-01-13T05:46:50.684Z,981.04
2019-01-13T05:47:50.830Z,980.99
2019-01-13T05:48:50.976Z,981.00
2019-01-13T05:49:51.121Z,981.00
2019-01-13T05:50:51.265Z,980.99
2019-01-13T05:51:51.411Z,980.95
2019-01-13T05:52:51.556Z,980.95
2019-01-13T05:53:51.704Z,980.96
2019-01-13T05:54:51.846Z,980.98
2019-01-13T05:55:51.993Z,980.97
2019-01-13T05:56:52.138Z,980.93
2019-01-13T05:57:52.284Z,980.93
2019-01-13T05:58:52.444Z,980.93
2019-01-13T05:59:52.575Z,980.84
2019-01-13T06:00:52.724Z,980.85
2019-01-13T06:01:52.868Z,980.87
2019-01-13T06:02:53.013Z,980.89
2019-01-13T06:03:53.157Z,980.95
2019-01-13T06:04:53.303Z,980.92
2019-01-13T06:05:53.449Z,980.94
2019-01-13T06:06:53.595Z,980.96
2019-01-13T06:07:53.770Z,981.00
2019-01-13T06:08:53.884Z,980.97
2019-01-13T06:09:54.026Z,981.02
2019-01-13T06:10:54.170Z,980.96
2019-01-13T06:11:54.317Z,980.91
2019-01-13T06:12:54.465Z,980.94
2019-01-13T06:13:54.610Z,980.89
2019-01-13T06:14:54.753Z,980.85
2019-01-13T06:15:54.902Z,980.88
2019-01-13T06:16:55.047Z,980.89
2019-01-13T06:17:55.191Z,980.87
2019-01-13T06:18:55.335Z,980.88
2019-01-13T06:19:55.482Z,980.83
2019-01-13T06:20:55.628Z,980.84
2019-01-13T06:21:55.775Z,980.80
2019-01-13T06:22:55.918Z,980.86
2019-01-13T06:23:56.062Z,980.85
2019-01-13T06:24:56.207Z,980.91
2019-01-13T06:25:56.357Z,980.87
2019-01-13T06:26:56.497Z,980.90
2019-01-13T06:27:56.647Z,980.87
2019-01-13T06:28:56.789Z,980.93
2019-01-13T06:29:56.934Z,980.88
2019-01-13T06:30:57.078Z,980.85
2019-01-13T06:31:57.224Z,980.82
2019-01-13T06:32:57.369Z,980.78
2019-01-13T06:33:57.518Z,980.74
2019-01-13T06:34:57.660Z,980.70
2019-01-13T06:35:57.805Z,980.73
2019-01-13T06:36:57.958Z,980.72
2019-01-13T06:37:58.098Z,980.72
2019-01-13T06:38:58.243Z,980.72
2019-01-13T06:39:58.389Z,980.71
2019-01-13T06:40:58.536Z,980.68
2019-01-13T06:41:58.680Z,980.67
2019-01-13T06:42:58.825Z,980.70
2019-01-13T06:43:58.972Z,980.67
2019-01-13T06:44:59.117Z,980.66
2019-01-13T06:45:59.266Z,980.64
2019-01-13T06:46:59.411Z,980.61
2019-01-13T06:47:59.554Z,980.56
2019-01-13T06:48:59.699Z,980.61
2019-01-13T06:49:59.846Z,980.58
2019-01-13T06:50:59.992Z,980.57
2019-01-13T06:52:00.136Z,980.65
2019-01-13T06:53:00.284Z,980.65
2019-01-13T06:54:00.428Z,980.65
2019-01-13T06:55:00.623Z,980.63
2019-01-13T06:56:00.719Z,980.60
2019-01-13T06:57:00.864Z,980.59
2019-01-13T06:58:01.010Z,980.57
2019-01-13T06:59:01.155Z,980.62
2019-01-13T07:00:01.302Z,980.55
2019-01-13T07:01:01.448Z,980.53
2019-01-13T07:02:03.479Z,980.50
2019-01-13T07:03:01.738Z,980.46
2019-01-13T07:04:01.885Z,980.37
2019-01-13T07:05:02.033Z,980.35
2019-01-13T07:06:02.184Z,980.28
2019-01-13T07:07:02.322Z,980.25
2019-01-13T07:08:02.470Z,980.22
2019-01-13T07:09:02.619Z,980.23
2019-01-13T07:10:02.760Z,980.25
2019-01-13T07:11:02.906Z,980.22
2019-01-13T07:12:03.054Z,980.24
2019-01-13T07:13:03.199Z,980.23
2019-01-13T07:14:03.345Z,980.16
2019-01-13T07:15:03.491Z,980.14
2019-01-13T07:16:03.635Z,980.19
2019-01-13T07:17:03.781Z,980.21
2019-01-13T07:18:03.927Z,980.26
2019-01-13T07:19:04.075Z,980.29
2019-01-13T07:20:04.217Z,980.34
2019-01-13T07:21:04.363Z,980.34
2019-01-13T07:22:04.510Z,980.37
2019-01-13T07:23:04.658Z,980.32
2019-01-13T07:24:04.803Z,980.29
2019-01-13T07:25:04.947Z,980.27
2019-01-13T07:26:05.095Z,980.24
2019-01-13T07:27:05.239Z,980.29
2019-01-13T07:28:05.384Z,980.33
2019-01-13T07:29:05.537Z,980.25
2019-01-13T07:30:05.677Z,980.23
2019-01-13T07:31:05.825Z,980.21
2019-01-13T07:32:10.717Z,980.20
2019-01-13T07:33:06.114Z,980.24
2019-01-13T07:34:06.260Z,980.21
2019-01-13T07:35:06.410Z,980.20
2019-01-13T07:36:06.552Z,980.16
2019-01-13T07:37:06.698Z,980.13
2019-01-13T07:38:06.842Z,980.19
2019-01-13T07:39:06.987Z,980.23
2019-01-13T07:40:07.135Z,980.16
2019-01-13T07:41:07.282Z,980.18
2019-01-13T07:42:07.426Z,980.14
2019-01-13T07:43:07.573Z,980.13
2019-01-13T07:44:07.719Z,980.12
2019-01-13T07:45:07.864Z,980.07
2019-01-13T07:46:08.011Z,980.07
2019-01-13T07:47:08.156Z,980.04
2019-01-13T07:48:08.304Z,980.03
2019-01-13T07:49:08.449Z,980.06
2019-01-13T07:50:08.599Z,980.06
2019-01-13T07:51:08.744Z,980.01
2019-01-13T07:52:08.888Z,980.02
2019-01-13T07:53:09.058Z,979.97
2019-01-13T07:54:09.182Z,979.99
2019-01-13T07:55:09.332Z,979.98
2019-01-13T07:56:09.476Z,979.95
2019-01-13T07:57:09.633Z,979.96
2019-01-13T07:58:09.770Z,979.96
2019-01-13T07:59:09.916Z,979.93
2019-01-13T08:00:10.061Z,979.92
2019-01-13T08:01:10.208Z,979.96
2019-01-13T08:02:10.353Z,979.93
2019-01-13T08:03:10.497Z,979.93
2019-01-13T08:04:10.642Z,979.93
2019-01-13T08:05:10.792Z,979.87
2019-01-13T08:06:10.940Z,979.86
2019-01-13T08:07:11.086Z,979.84
2019-01-13T08:08:11.233Z,979.86
2019-01-13T08:09:11.378Z,979.83
2019-01-13T08:10:11.526Z,979.86
2019-01-13T08:11:11.676Z,979.87
2019-01-13T08:12:11.820Z,979.82
2019-01-13T08:13:11.966Z,979.80
2019-01-13T08:14:12.111Z,979.78
2019-01-13T08:15:12.257Z,979.69
2019-01-13T08:16:12.404Z,979.67
2019-01-13T08:17:12.548Z,979.69
2019-01-13T08:18:12.692Z,979.74
2019-01-13T08:19:12.839Z,979.75
2019-01-13T08:20:12.987Z,979.76
2019-01-13T08:21:13.132Z,979.77
2019-01-13T08:22:13.278Z,979.74
2019-01-13T08:23:13.425Z,979.66
2019-01-13T08:24:13.565Z,979.73
2019-01-13T08:25:13.712Z,979.69
2019-01-13T08:26:13.858Z,979.65
2019-01-13T08:27:14.006Z,979.64
2019-01-13T08:28:14.147Z,979.60
2019-01-13T08:29:14.294Z,979.63
2019-01-13T08:30:14.441Z,979.63
2019-01-13T08:31:14.589Z,979.62
2019-01-13T08:32:14.740Z,979.59
2019-01-13T08:33:14.879Z,979.63
2019-01-13T08:34:15.029Z,979.57
2019-01-13T08:35:15.161Z,979.54
2019-01-13T08:36:15.310Z,979.53
2019-01-13T08:37:15.456Z,979.50
2019-01-13T08:38:15.601Z,979.51
2019-01-13T08:39:15.747Z,979.44
2019-01-13T08:40:15.891Z,979.38
2019-01-13T08:41:16.040Z,979.39
2019-01-13T08:42:16.187Z,979.35
2019-01-13T08:43:16.341Z,979.36
2019-01-13T08:44:16.479Z,979.29
2019-01-13T08:45:16.628Z,979.31
2019-01-13T08:46:16.769Z,979.29
2019-01-13T08:47:16.913Z,979.20
2019-01-13T08:48:17.061Z,979.17
2019-01-13T08:49:17.799Z,979.11
2019-01-13T08:50:17.358Z,979.11
2019-01-13T08:51:17.500Z,979.17
2019-01-13T08:52:17.649Z,979.14
2019-01-13T08:53:17.793Z,979.12
2019-01-13T08:54:17.941Z,979.08
2019-01-13T08:55:18.087Z,979.06
2019-01-13T08:56:18.233Z,979.03
2019-01-13T08:57:18.381Z,979.03
2019-01-13T08:58:18.516Z,979.02
2019-01-13T08:59:18.665Z,978.96
2019-01-13T09:00:18.810Z,978.91
2019-01-13T09:01:18.958Z,978.87
2019-01-13T09:02:19.103Z,978.84
2019-01-13T09:03:19.249Z,978.85
2019-01-13T09:04:19.396Z,978.87
2019-01-13T09:05:19.544Z,978.90
2019-01-13T09:06:19.691Z,978.86
2019-01-13T09:07:19.841Z,978.87
2019-01-13T09:08:19.987Z,978.82
2019-01-13T09:09:20.133Z,978.82
2019-01-13T09:10:20.280Z,978.79
2019-01-13T09:11:20.427Z,978.76
2019-01-13T09:12:20.572Z,978.77
2019-01-13T09:13:20.720Z,978.77
2019-01-13T09:14:20.868Z,978.71
2019-01-13T09:15:21.015Z,978.68
2019-01-13T09:16:21.161Z,978.70
2019-01-13T09:17:21.309Z,978.72
2019-01-13T09:18:21.457Z,978.70
2019-01-13T09:19:21.603Z,978.65
2019-01-13T09:20:21.752Z,978.66
2019-01-13T09:21:21.898Z,978.62
2019-01-13T09:22:22.047Z,978.57
2019-01-13T09:23:22.189Z,978.54
2019-01-13T09:24:22.337Z,978.55
2019-01-13T09:25:22.483Z,978.56
2019-01-13T09:26:22.631Z,978.52
2019-01-13T09:27:22.777Z,978.45
2019-01-13T09:28:22.923Z,978.40
2019-01-13T09:29:23.077Z,978.42
2019-01-13T09:30:23.216Z,978.34
2019-01-13T09:31:23.365Z,978.27
2019-01-13T09:32:23.512Z,978.24
2019-01-13T09:33:23.658Z,978.28
2019-01-13T09:34:23.804Z,978.28
2019-01-13T09:35:23.952Z,978.25
2019-01-13T09:36:24.100Z,978.28
2019-01-13T09:37:24.247Z,978.25
2019-01-13T09:38:24.401Z,978.23
2019-01-13T09:39:24.544Z,978.26
2019-01-13T09:40:24.691Z,978.19
2019-01-13T09:41:24.835Z,978.17
2019-01-13T09:42:24.991Z,978.24
2019-01-13T09:43:25.120Z,978.12
2019-01-13T09:44:25.268Z,978.13
2019-01-13T09:45:25.412Z,978.07
2019-01-13T09:46:25.561Z,978.07
2019-01-13T09:47:25.706Z,978.02
2019-01-13T09:48:25.855Z,978.04
2019-01-13T09:49:26.001Z,978.05
2019-01-13T09:50:26.149Z,978.00
2019-01-13T09:51:26.295Z,977.98
2019-01-13T09:52:26.441Z,977.96
2019-01-13T09:53:26.591Z,977.92
2019-01-13T09:54:26.737Z,977.93
2019-01-13T09:55:26.882Z,977.88
2019-01-13T09:56:27.031Z,977.88
2019-01-13T09:57:27.189Z,977.89
2019-01-13T09:58:27.377Z,977.87
2019-01-13T09:59:27.474Z,977.83
2019-01-13T10:00:27.620Z,977.81
2019-01-13T10:01:27.772Z,977.75
2019-01-13T10:02:27.919Z,977.78
2019-01-13T10:03:28.067Z,977.68
2019-01-13T10:04:28.218Z,977.73
2019-01-13T10:05:28.364Z,977.60
2019-01-13T10:06:28.513Z,977.60
2019-01-13T10:07:28.662Z,977.61
2019-01-13T10:08:28.808Z,977.55
2019-01-13T10:09:28.952Z,977.54
2019-01-13T10:10:29.099Z,977.54
2019-01-13T10:11:29.250Z,977.52
2019-01-13T10:12:29.393Z,977.49
2019-01-13T10:13:29.541Z,977.46
2019-01-13T10:14:29.690Z,977.43
2019-01-13T10:15:29.835Z,977.40
2019-01-13T10:16:29.980Z,977.36
2019-01-13T10:17:30.130Z,977.31
2019-01-13T10:18:30.278Z,977.32
2019-01-13T10:19:30.423Z,977.31
2019-01-13T10:20:30.572Z,977.21
2019-01-13T10:21:30.738Z,977.23
2019-01-13T10:22:30.901Z,977.21
2019-01-13T10:23:31.025Z,977.14
2019-01-13T10:24:31.172Z,977.08
2019-01-13T10:25:31.318Z,977.09
2019-01-13T10:26:31.469Z,977.09
2019-01-13T10:27:31.619Z,977.03
2019-01-13T10:28:31.770Z,977.09
2019-01-13T10:29:31.916Z,977.10
2019-01-13T10:30:32.072Z,977.14
2019-01-13T10:31:32.215Z,977.12
2019-01-13T10:32:32.367Z,977.07
2019-01-13T10:33:32.518Z,977.03
2019-01-13T10:34:32.696Z,977.07
2019-01-13T10:35:32.850Z,977.02
2019-01-13T10:36:32.993Z,977.01
2019-01-13T10:37:33.141Z,976.94
2019-01-13T10:38:33.284Z,976.97
2019-01-13T10:39:33.436Z,976.86
2019-01-13T10:40:33.582Z,976.87
2019-01-13T10:41:33.731Z,976.88
2019-01-13T10:42:33.879Z,976.84
2019-01-13T10:43:34.021Z,976.79
2019-01-13T10:44:34.171Z,976.80
2019-01-13T10:45:34.322Z,976.81
2019-01-13T10:46:34.468Z,976.85
2019-01-13T10:47:34.615Z,976.78
2019-01-13T10:48:34.764Z,976.81
2019-01-13T10:49:34.912Z,976.80
2019-01-13T10:50:35.057Z,976.74
2019-01-13T10:51:35.205Z,976.71
2019-01-13T10:52:35.353Z,976.67
2019-01-13T10:53:35.501Z,976.60
2019-01-13T10:54:35.647Z,976.58
2019-01-13T10:55:35.796Z,976.65
2019-01-13T10:56:35.945Z,976.58
2019-01-13T10:57:36.090Z,976.58
2019-01-13T10:58:36.238Z,976.54
2019-01-13T10:59:36.398Z,976.60
2019-01-13T11:00:36.541Z,976.55
2019-01-13T11:01:36.688Z,976.53
2019-01-13T11:02:36.835Z,976.47
2019-01-13T11:03:36.983Z,976.35
2019-01-13T11:04:37.131Z,976.40
2019-01-13T11:05:37.277Z,976.36
2019-01-13T11:06:37.423Z,976.37
2019-01-13T11:07:37.571Z,976.35
2019-01-13T11:08:37.786Z,976.34
2019-01-13T11:09:37.866Z,976.29
2019-01-13T11:10:38.013Z,976.26
2019-01-13T11:11:38.164Z,976.19
2019-01-13T11:12:38.320Z,976.14
2019-01-13T11:13:38.880Z,976.07
2019-01-13T11:14:38.619Z,976.15
2019-01-13T11:15:38.770Z,976.06
2019-01-13T11:16:38.925Z,975.99
2019-01-13T11:17:39.088Z,976.01
2019-01-13T11:18:39.234Z,976.00
2019-01-13T11:19:39.379Z,975.93
2019-01-13T11:20:39.527Z,975.92
2019-01-13T11:21:39.817Z,975.88
2019-01-13T11:22:39.877Z,975.87
2019-01-13T11:23:40.031Z,975.85
2019-01-13T11:24:40.178Z,975.93
2019-01-13T11:25:40.330Z,975.78
2019-01-13T11:26:40.472Z,975.72
2019-01-13T11:27:40.623Z,975.74
2019-01-13T11:28:40.769Z,975.72
2019-01-13T11:29:40.917Z,975.62
2019-01-13T11:30:41.067Z,975.59
2019-01-13T11:31:41.211Z,975.55
2019-01-13T11:32:41.360Z,975.53
2019-01-13T11:33:41.509Z,975.50
2019-01-13T11:34:41.656Z,975.45
2019-01-13T11:35:41.804Z,975.41
2019-01-13T11:36:41.953Z,975.45
2019-01-13T11:37:42.097Z,975.45
2019-01-13T11:38:42.247Z,975.44
2019-01-13T11:39:42.395Z,975.42
2019-01-13T11:40:42.542Z,975.39
2019-01-13T11:41:42.689Z,975.43
2019-01-13T11:42:42.846Z,975.38
2019-01-13T11:43:42.990Z,975.36
2019-01-13T11:44:43.142Z,975.40
2019-01-13T11:45:43.296Z,975.38
2019-01-13T11:46:43.444Z,975.38
2019-01-13T11:47:43.590Z,975.34
2019-01-13T11:48:43.745Z,975.38
2019-01-13T11:49:43.891Z,975.27
2019-01-13T11:50:44.040Z,975.31
2019-01-13T11:51:44.186Z,975.31
2019-01-13T11:52:44.335Z,975.29
2019-01-13T11:53:44.485Z,975.22
2019-01-13T11:54:44.630Z,975.25
2019-01-13T11:55:44.780Z,975.20
2019-01-13T11:56:44.925Z,975.28
2019-01-13T11:57:45.072Z,975.20
2019-01-13T11:58:45.219Z,975.15
2019-01-13T11:59:45.367Z,975.15
2019-01-13T12:00:45.529Z,975.09
2019-01-13T12:01:45.675Z,975.07
2019-01-13T12:02:45.841Z,974.94
2019-01-13T12:03:45.972Z,974.89
2019-01-13T12:04:46.120Z,974.77
2019-01-13T12:05:46.267Z,974.78
2019-01-13T12:06:46.420Z,974.80
2019-01-13T12:07:46.573Z,974.80
2019-01-13T12:08:46.718Z,974.79
2019-01-13T12:09:46.898Z,974.79
2019-01-13T12:10:47.011Z,974.76
2019-01-13T12:11:47.157Z,974.70
2019-01-13T12:12:47.322Z,974.64
2019-01-13T12:13:47.969Z,974.62
2019-01-13T12:14:47.606Z,974.53
2019-01-13T12:15:47.756Z,974.57
2019-01-13T12:16:47.902Z,974.53
2019-01-13T12:17:48.055Z,974.51
2019-01-13T12:18:48.197Z,974.52
2019-01-13T12:19:48.346Z,974.52
2019-01-13T12:20:48.495Z,974.49
2019-01-13T12:21:48.648Z,974.48
2019-01-13T12:22:48.852Z,974.33
2019-01-13T12:23:48.932Z,974.34
2019-01-13T12:24:49.089Z,974.35
2019-01-13T12:25:52.783Z,974.32
2019-01-13T12:26:49.511Z,974.31
2019-01-13T12:27:49.634Z,974.33
2019-01-13T12:28:49.739Z,974.24
2019-01-13T12:29:49.870Z,974.29